Terminal Aerodrome Forecast
Issued by NWS Springfield, MO

Home | Current Version | Previous Version | Text Only | Print | Product List | Glossary On
Versions: 1 2 3 4 5 6 7 8 9 10 11 12
593
FTUS43 KSGF 232331
TAFSGF
TAF
KSGF 232331Z 2400/2424 36005KT P6SM SCT250
     FM240500 VRB03KT P6SM BKN250
     FM241500 03006KT P6SM FEW050 SCT250=

USA.gov is the U.S. government's official web portal to all federal, state and local government web resources and services.